createdAt,value
2019-05-30T00:00:44.166Z,84.03
2019-05-30T00:01:44.157Z,83.08
2019-05-30T00:02:44.152Z,82.08
2019-05-30T00:03:44.179Z,83.37
2019-05-30T00:04:44.132Z,84.70
2019-05-30T00:05:44.123Z,83.84
2019-05-30T00:06:44.124Z,83.17
2019-05-30T00:07:44.106Z,83.08
2019-05-30T00:08:44.099Z,84.52
2019-05-30T00:09:44.117Z,85.09
2019-05-30T00:10:44.083Z,84.52
2019-05-30T00:11:44.072Z,84.13
2019-05-30T00:12:44.063Z,84.23
2019-05-30T00:13:44.055Z,83.65
2019-05-30T00:14:44.052Z,83.94
2019-05-30T00:15:44.038Z,83.94
2019-05-30T00:16:44.030Z,82.75
2019-05-30T00:17:44.021Z,79.93
2019-05-30T00:18:44.013Z,80.98
2019-05-30T00:19:44.105Z,81.36
2019-05-30T00:20:43.995Z,81.45
2019-05-30T00:21:43.987Z,80.98
2019-05-30T00:22:43.978Z,80.88
2019-05-30T00:23:43.969Z,81.07
2019-05-30T00:24:43.960Z,80.50
2019-05-30T00:25:43.952Z,80.98
2019-05-30T00:26:43.944Z,79.83
2019-05-30T00:27:43.936Z,80.40
2019-05-30T00:28:43.927Z,79.44
2019-05-30T00:29:43.918Z,79.35
2019-05-30T00:30:43.909Z,79.93
2019-05-30T00:31:43.900Z,79.44
2019-05-30T00:32:43.891Z,80.59
2019-05-30T00:33:43.883Z,81.55
2019-05-30T00:34:43.875Z,82.22
2019-05-30T00:35:43.867Z,81.55
2019-05-30T00:36:43.857Z,81.07
2019-05-30T00:37:43.849Z,80.79
2019-05-30T00:38:43.841Z,81.65
2019-05-30T00:39:43.836Z,81.16
2019-05-30T00:40:43.823Z,79.73
2019-05-30T00:41:43.816Z,78.78
2019-05-30T00:42:43.806Z,79.64
2019-05-30T00:43:43.798Z,80.88
2019-05-30T00:44:43.789Z,81.26
2019-05-30T00:45:43.780Z,79.06
2019-05-30T00:46:43.821Z,79.64
2019-05-30T00:47:43.764Z,80.40
2019-05-30T00:48:43.754Z,81.93
2019-05-30T00:49:43.747Z,81.74
2019-05-30T00:50:43.739Z,80.69
2019-05-30T00:51:43.730Z,79.73
2019-05-30T00:52:43.720Z,78.11
2019-05-30T00:53:43.715Z,77.92
2019-05-30T00:54:43.705Z,77.53
2019-05-30T00:55:43.701Z,77.34
2019-05-30T00:56:43.686Z,77.28
2019-05-30T00:57:43.685Z,77.44
2019-05-30T00:58:43.670Z,77.06
2019-05-30T00:59:43.662Z,77.67
2019-05-30T01:00:44.306Z,78.97
2019-05-30T01:01:43.646Z,78.87
2019-05-30T01:02:43.650Z,78.87
2019-05-30T01:03:43.627Z,79.06
2019-05-30T01:04:43.623Z,79.93
2019-05-30T01:05:43.610Z,79.83
2019-05-30T01:06:43.605Z,79.35
2019-05-30T01:07:43.594Z,79.73
2019-05-30T01:08:43.589Z,78.30
2019-05-30T01:09:43.576Z,77.53
2019-05-30T01:10:43.573Z,77.44
2019-05-30T01:11:43.560Z,77.25
2019-05-30T01:12:43.553Z,77.34
2019-05-30T01:13:43.542Z,78.78
2019-05-30T01:14:43.544Z,79.54
2019-05-30T01:15:43.526Z,78.01
2019-05-30T01:16:43.516Z,78.30
2019-05-30T01:17:43.509Z,77.06
2019-05-30T01:18:43.499Z,77.06
2019-05-30T01:19:43.491Z,76.48
2019-05-30T01:20:43.481Z,76.48
2019-05-30T01:21:43.473Z,77.06
2019-05-30T01:22:43.470Z,76.86
2019-05-30T01:23:43.456Z,77.06
2019-05-30T01:24:43.452Z,76.52
2019-05-30T01:25:43.438Z,76.33
2019-05-30T01:26:43.435Z,76.23
2019-05-30T01:27:43.422Z,76.14
2019-05-30T01:28:43.414Z,75.66
2019-05-30T01:29:43.412Z,75.85
2019-05-30T01:30:58.905Z,77.38
2019-05-30T01:31:43.387Z,77.09
2019-05-30T01:32:43.378Z,77.38
2019-05-30T01:33:43.369Z,76.42
2019-05-30T01:34:43.367Z,75.95
2019-05-30T01:35:43.354Z,76.71
2019-05-30T01:36:43.343Z,77.48
2019-05-30T01:37:43.338Z,78.43
2019-05-30T01:38:43.326Z,79.49
2019-05-30T01:39:43.318Z,79.77
2019-05-30T01:40:43.309Z,79.00
2019-05-30T01:41:43.301Z,79.06
2019-05-30T01:42:43.293Z,79.20
2019-05-30T01:43:43.283Z,79.16
2019-05-30T01:44:43.275Z,77.63
2019-05-30T01:45:43.267Z,77.63
2019-05-30T01:46:43.261Z,77.82
2019-05-30T01:47:43.249Z,76.20
2019-05-30T01:48:43.241Z,76.62
2019-05-30T01:49:43.234Z,77.63
2019-05-30T01:50:43.226Z,77.92
2019-05-30T01:51:43.229Z,77.48
2019-05-30T01:52:43.212Z,77.19
2019-05-30T01:53:43.200Z,77.48
2019-05-30T01:54:43.190Z,77.28
2019-05-30T01:55:43.186Z,76.71
2019-05-30T01:56:43.172Z,75.85
2019-05-30T01:57:43.170Z,76.71
2019-05-30T01:58:43.157Z,77.38
2019-05-30T01:59:43.147Z,77.09
2019-05-30T02:00:43.144Z,76.42
2019-05-30T02:01:43.132Z,76.62
2019-05-30T02:02:43.122Z,75.47
2019-05-30T02:03:43.114Z,75.37
2019-05-30T02:04:43.104Z,76.04
2019-05-30T02:05:43.096Z,76.33
2019-05-30T02:06:43.089Z,77.19
2019-05-30T02:07:43.080Z,78.53
2019-05-30T02:08:43.073Z,76.90
2019-05-30T02:09:43.063Z,76.90
2019-05-30T02:10:43.055Z,78.05
2019-05-30T02:11:43.047Z,78.91
2019-05-30T02:12:43.037Z,77.67
2019-05-30T02:13:43.031Z,78.14
2019-05-30T02:14:43.021Z,78.63
2019-05-30T02:15:43.014Z,78.05
2019-05-30T02:16:43.004Z,77.19
2019-05-30T02:17:42.996Z,77.09
2019-05-30T02:18:42.987Z,77.19
2019-05-30T02:19:42.985Z,77.09
2019-05-30T02:20:42.969Z,76.71
2019-05-30T02:21:42.968Z,76.14
2019-05-30T02:22:42.955Z,76.62
2019-05-30T02:23:42.978Z,76.71
2019-05-30T02:24:42.936Z,78.05
2019-05-30T02:25:42.927Z,77.48
2019-05-30T02:26:42.919Z,77.86
2019-05-30T02:27:42.911Z,78.43
2019-05-30T02:28:42.902Z,78.63
2019-05-30T02:29:42.894Z,77.09
2019-05-30T02:30:42.886Z,77.09
2019-05-30T02:31:42.878Z,77.28
2019-05-30T02:32:42.875Z,77.76
2019-05-30T02:33:42.866Z,79.77
2019-05-30T02:34:42.852Z,79.87
2019-05-30T02:35:42.845Z,78.91
2019-05-30T02:36:42.835Z,79.49
2019-05-30T02:37:42.836Z,77.76
2019-05-30T02:38:42.818Z,77.28
2019-05-30T02:39:42.827Z,77.95
2019-05-30T02:40:42.807Z,77.19
2019-05-30T02:41:42.800Z,77.28
2019-05-30T02:42:42.791Z,78.24
2019-05-30T02:43:42.787Z,79.29
2019-05-30T02:44:42.766Z,78.63
2019-05-30T02:45:42.761Z,77.38
2019-05-30T02:46:42.753Z,77.38
2019-05-30T02:47:42.743Z,77.00
2019-05-30T02:48:58.273Z,77.00
2019-05-30T02:49:42.724Z,76.81
2019-05-30T02:50:42.726Z,76.42
2019-05-30T02:51:42.717Z,77.00
2019-05-30T02:52:42.707Z,77.38
2019-05-30T02:53:42.691Z,77.00
2019-05-30T02:54:42.682Z,77.19
2019-05-30T02:55:42.677Z,76.81
2019-05-30T02:56:42.665Z,77.19
2019-05-30T02:57:42.661Z,77.19
2019-05-30T02:58:42.649Z,76.71
2019-05-30T02:59:42.641Z,77.28
2019-05-30T03:00:42.632Z,77.19
2019-05-30T03:01:58.794Z,77.38
2019-05-30T03:02:42.616Z,77.09
2019-05-30T03:03:42.611Z,77.38
2019-05-30T03:04:42.597Z,78.34
2019-05-30T03:05:42.587Z,77.38
2019-05-30T03:06:42.592Z,77.09
2019-05-30T03:07:42.572Z,76.71
2019-05-30T03:08:42.561Z,76.90
2019-05-30T03:09:42.553Z,76.23
2019-05-30T03:10:42.545Z,77.00
2019-05-30T03:11:42.542Z,77.48
2019-05-30T03:12:42.527Z,76.81
2019-05-30T03:13:42.518Z,76.81
2019-05-30T03:14:42.512Z,77.09
2019-05-30T03:15:42.508Z,77.19
2019-05-30T03:16:42.496Z,77.57
2019-05-30T03:17:42.486Z,77.19
2019-05-30T03:18:42.489Z,77.38
2019-05-30T03:19:42.469Z,77.28
2019-05-30T03:20:42.458Z,77.38
2019-05-30T03:21:42.448Z,77.28
2019-05-30T03:22:42.441Z,77.48
2019-05-30T03:23:42.448Z,77.38
2019-05-30T03:24:42.423Z,78.05
2019-05-30T03:25:42.416Z,77.28
2019-05-30T03:26:42.404Z,77.48
2019-05-30T03:27:42.398Z,77.28
2019-05-30T03:28:42.391Z,77.38
2019-05-30T03:29:42.380Z,78.43
2019-05-30T03:30:42.375Z,78.14
2019-05-30T03:31:42.362Z,78.14
2019-05-30T03:33:43.192Z,77.38
2019-05-30T03:34:42.364Z,77.86
2019-05-30T03:35:44.185Z,77.76
2019-05-30T03:36:42.317Z,77.67
2019-05-30T03:37:42.309Z,77.76
2019-05-30T03:38:42.299Z,78.24
2019-05-30T03:39:42.291Z,78.05
2019-05-30T03:40:42.282Z,78.34
2019-05-30T03:41:42.297Z,78.05
2019-05-30T03:42:42.264Z,78.43
2019-05-30T03:43:42.255Z,78.63
2019-05-30T03:44:42.250Z,78.53
2019-05-30T03:45:42.245Z,78.34
2019-05-30T03:46:42.228Z,78.43
2019-05-30T03:47:42.219Z,78.63
2019-05-30T03:48:42.211Z,78.43
2019-05-30T03:49:42.209Z,78.53
2019-05-30T03:50:42.194Z,78.14
2019-05-30T03:51:42.185Z,78.53
2019-05-30T03:52:42.175Z,78.72
2019-05-30T03:53:42.168Z,78.91
2019-05-30T03:54:42.157Z,78.72
2019-05-30T03:55:42.147Z,79.00
2019-05-30T03:56:42.139Z,79.10
2019-05-30T03:57:42.132Z,78.53
2019-05-30T03:58:42.123Z,78.63
2019-05-30T03:59:42.112Z,78.81
2019-05-30T04:00:42.105Z,78.63
2019-05-30T04:01:42.094Z,79.10
2019-05-30T04:02:56.331Z,79.39
2019-05-30T04:03:42.090Z,79.39
2019-05-30T04:04:42.070Z,78.53
2019-05-30T04:05:42.062Z,78.81
2019-05-30T04:06:42.052Z,78.81
2019-05-30T04:07:42.042Z,78.63
2019-05-30T04:08:42.031Z,78.63
2019-05-30T04:09:42.021Z,78.53
2019-05-30T04:10:42.014Z,79.10
2019-05-30T04:11:42.007Z,78.43
2019-05-30T04:12:41.996Z,78.63
2019-05-30T04:13:41.993Z,78.53
2019-05-30T04:14:41.978Z,79.49
2019-05-30T04:15:41.968Z,78.91
2019-05-30T04:16:41.968Z,78.81
2019-05-30T04:17:41.950Z,77.95
2019-05-30T04:18:41.942Z,78.72
2019-05-30T04:19:41.933Z,78.43
2019-05-30T04:20:41.923Z,77.95
2019-05-30T04:21:41.914Z,78.43
2019-05-30T04:22:41.906Z,78.43
2019-05-30T04:23:41.898Z,78.63
2019-05-30T04:24:41.888Z,78.53
2019-05-30T04:25:41.879Z,78.43
2019-05-30T04:26:41.870Z,79.00
2019-05-30T04:27:41.860Z,78.53
2019-05-30T04:28:41.851Z,78.53
2019-05-30T04:29:41.842Z,79.29
2019-05-30T04:30:41.833Z,79.39
2019-05-30T04:31:41.824Z,79.29
2019-05-30T04:32:41.817Z,79.10
2019-05-30T04:33:41.846Z,79.77
2019-05-30T04:34:41.797Z,79.68
2019-05-30T04:35:41.794Z,79.29
2019-05-30T04:36:41.784Z,79.10
2019-05-30T04:37:41.771Z,79.00
2019-05-30T04:38:41.769Z,79.77
2019-05-30T04:39:41.754Z,79.77
2019-05-30T04:40:41.744Z,79.00
2019-05-30T04:41:41.735Z,79.00
2019-05-30T04:42:41.726Z,79.68
2019-05-30T04:43:41.723Z,79.10
2019-05-30T04:44:41.727Z,79.77
2019-05-30T04:45:41.703Z,80.25
2019-05-30T04:46:41.692Z,79.49
2019-05-30T04:47:41.685Z,80.16
2019-05-30T04:48:41.675Z,79.77
2019-05-30T04:49:41.667Z,80.44
2019-05-30T04:50:41.655Z,79.49
2019-05-30T04:51:41.648Z,79.68
2019-05-30T04:52:41.640Z,80.06
2019-05-30T04:53:41.628Z,80.16
2019-05-30T04:54:41.619Z,80.16
2019-05-30T04:55:41.610Z,80.25
2019-05-30T04:56:41.602Z,80.25
2019-05-30T04:57:41.593Z,80.16
2019-05-30T04:58:42.740Z,80.16
2019-05-30T04:59:41.574Z,80.25
2019-05-30T05:00:41.566Z,80.38
2019-05-30T05:01:41.557Z,80.16
2019-05-30T05:02:41.547Z,80.25
2019-05-30T05:03:45.795Z,80.25
2019-05-30T05:04:41.530Z,80.25
2019-05-30T05:05:41.520Z,80.96
2019-05-30T05:06:41.520Z,80.48
2019-05-30T05:07:41.504Z,80.10
2019-05-30T05:08:41.494Z,80.29
2019-05-30T05:09:41.486Z,80.58
2019-05-30T05:10:41.476Z,80.58
2019-05-30T05:11:41.469Z,80.67
2019-05-30T05:12:41.508Z,80.77
2019-05-30T05:13:41.449Z,80.96
2019-05-30T05:14:41.441Z,81.05
2019-05-30T05:15:41.433Z,81.25
2019-05-30T05:16:41.423Z,81.15
2019-05-30T05:17:41.415Z,81.15
2019-05-30T05:18:41.408Z,81.15
2019-05-30T05:19:41.397Z,82.45
2019-05-30T05:20:41.392Z,83.22
2019-05-30T05:21:41.380Z,83.69
2019-05-30T05:22:41.372Z,83.69
2019-05-30T05:23:41.363Z,85.22
2019-05-30T05:24:41.352Z,84.55
2019-05-30T05:25:41.343Z,84.55
2019-05-30T05:26:41.335Z,84.17
2019-05-30T05:27:41.327Z,84.17
2019-05-30T05:28:41.319Z,83.60
2019-05-30T05:29:41.328Z,83.60
2019-05-30T05:30:41.299Z,83.22
2019-05-30T05:31:41.290Z,83.12
2019-05-30T05:32:41.282Z,83.22
2019-05-30T05:33:55.720Z,83.12
2019-05-30T05:34:41.263Z,83.36
2019-05-30T05:35:41.256Z,83.54
2019-05-30T05:36:41.246Z,83.45
2019-05-30T05:37:41.236Z,83.26
2019-05-30T05:38:41.237Z,83.36
2019-05-30T05:39:41.218Z,83.45
2019-05-30T05:40:41.210Z,83.26
2019-05-30T05:41:41.201Z,83.26
2019-05-30T05:42:41.200Z,84.02
2019-05-30T05:43:41.184Z,84.02
2019-05-30T05:44:41.175Z,83.64
2019-05-30T05:45:41.167Z,84.12
2019-05-30T05:46:41.159Z,84.02
2019-05-30T05:47:41.149Z,84.12
2019-05-30T05:48:41.139Z,84.59
2019-05-30T05:49:41.130Z,84.59
2019-05-30T05:50:41.129Z,84.50
2019-05-30T05:51:41.113Z,84.88
2019-05-30T05:52:41.107Z,85.13
2019-05-30T05:53:41.096Z,86.18
2019-05-30T05:54:41.087Z,86.47
2019-05-30T05:55:41.078Z,87.23
2019-05-30T05:56:41.069Z,87.43
2019-05-30T05:57:41.063Z,87.71
2019-05-30T05:58:41.051Z,88.29
2019-05-30T05:59:41.043Z,88.48
2019-05-30T06:00:41.034Z,88.57
2019-05-30T06:01:41.028Z,88.67
2019-05-30T06:02:41.017Z,88.86
2019-05-30T06:03:41.008Z,88.57
2019-05-30T06:04:41.000Z,88.67
2019-05-30T06:05:52.543Z,88.00
2019-05-30T06:06:40.981Z,87.62
2019-05-30T06:07:40.972Z,87.90
2019-05-30T06:08:40.963Z,87.81
2019-05-30T06:09:40.954Z,88.19
2019-05-30T06:10:40.947Z,87.43
2019-05-30T06:11:40.940Z,87.04
2019-05-30T06:12:40.928Z,87.62
2019-05-30T06:13:40.919Z,87.14
2019-05-30T06:14:40.910Z,87.62
2019-05-30T06:15:40.902Z,87.52
2019-05-30T06:16:40.893Z,86.76
2019-05-30T06:17:40.884Z,86.76
2019-05-30T06:18:40.884Z,87.23
2019-05-30T06:19:46.264Z,87.33
2019-05-30T06:20:40.858Z,86.57
2019-05-30T06:21:53.076Z,87.18
2019-05-30T06:22:40.841Z,86.61
2019-05-30T06:23:40.832Z,86.80
2019-05-30T06:24:40.825Z,86.80
2019-05-30T06:25:40.823Z,86.51
2019-05-30T06:26:40.807Z,86.41
2019-05-30T06:27:40.801Z,86.51
2019-05-30T06:28:40.793Z,86.51
2019-05-30T06:29:40.780Z,86.13
2019-05-30T06:30:40.771Z,86.51
2019-05-30T06:31:40.765Z,86.61
2019-05-30T06:32:40.760Z,86.90
2019-05-30T06:33:40.746Z,86.51
2019-05-30T06:34:40.738Z,86.80
2019-05-30T06:35:40.804Z,86.51
2019-05-30T06:36:40.721Z,86.80
2019-05-30T06:37:40.712Z,86.90
2019-05-30T06:38:40.704Z,86.70
2019-05-30T06:39:40.696Z,86.70
2019-05-30T06:40:40.687Z,87.32
2019-05-30T06:41:40.681Z,86.65
2019-05-30T06:42:40.670Z,86.55
2019-05-30T06:43:40.663Z,86.08
2019-05-30T06:44:40.654Z,86.36
2019-05-30T06:45:40.646Z,86.27
2019-05-30T06:46:40.638Z,86.65
2019-05-30T06:47:40.630Z,86.08
2019-05-30T06:48:40.622Z,86.08
2019-05-30T06:49:40.615Z,86.55
2019-05-30T06:50:40.609Z,86.36
2019-05-30T06:51:40.599Z,86.84
2019-05-30T06:52:40.599Z,86.31
2019-05-30T06:53:40.584Z,86.79
2019-05-30T06:54:40.576Z,86.21
2019-05-30T06:55:40.569Z,86.41
2019-05-30T06:56:40.560Z,86.31
2019-05-30T06:57:40.552Z,86.50
2019-05-30T06:58:48.544Z,86.21
2019-05-30T06:59:40.538Z,86.41
2019-05-30T07:00:40.530Z,86.41
2019-05-30T07:01:40.522Z,86.02
2019-05-30T07:02:40.518Z,86.21
2019-05-30T07:03:40.635Z,86.41
2019-05-30T07:04:51.372Z,85.83
2019-05-30T07:05:40.977Z,85.58
2019-05-30T07:06:40.726Z,85.54
2019-05-30T07:07:40.677Z,86.02
2019-05-30T07:08:40.474Z,86.69
2019-05-30T07:09:40.466Z,86.98
2019-05-30T07:10:40.458Z,86.21
2019-05-30T07:11:40.451Z,86.21
2019-05-30T07:12:40.446Z,86.12
2019-05-30T07:13:40.436Z,86.12
2019-05-30T07:14:40.430Z,86.41
2019-05-30T07:15:40.425Z,86.98
2019-05-30T07:16:40.414Z,87.37
2019-05-30T07:17:40.407Z,86.94
2019-05-30T07:18:40.401Z,87.17
2019-05-30T07:19:40.393Z,87.65
2019-05-30T07:20:40.385Z,87.65
2019-05-30T07:21:40.377Z,87.80
2019-05-30T07:22:40.370Z,88.18
2019-05-30T07:23:40.366Z,88.76
2019-05-30T07:24:40.354Z,88.56
2019-05-30T07:25:40.346Z,89.04
2019-05-30T07:26:40.340Z,88.76
2019-05-30T07:27:40.350Z,89.81
2019-05-30T07:28:40.323Z,88.18
2019-05-30T07:29:40.315Z,88.18
2019-05-30T07:30:40.309Z,88.95
2019-05-30T07:31:40.301Z,88.47
2019-05-30T07:32:40.292Z,88.76
2019-05-30T07:33:40.285Z,89.81
2019-05-30T07:34:40.276Z,89.33
2019-05-30T07:35:40.269Z,89.52
2019-05-30T07:36:40.260Z,89.62
2019-05-30T07:37:40.252Z,89.52
2019-05-30T07:38:40.247Z,90.09
2019-05-30T07:39:40.238Z,90.09
2019-05-30T07:40:40.230Z,89.90
2019-05-30T07:41:40.221Z,90.39
2019-05-30T07:42:40.215Z,90.00
2019-05-30T07:43:40.206Z,90.19
2019-05-30T07:44:40.200Z,90.00
2019-05-30T07:45:40.190Z,90.29
2019-05-30T07:46:40.182Z,90.77
2019-05-30T07:47:40.175Z,90.58
2019-05-30T07:48:40.167Z,91.25
2019-05-30T07:49:40.162Z,91.15
2019-05-30T07:50:40.157Z,91.05
2019-05-30T07:51:40.143Z,90.58
2019-05-30T07:52:40.134Z,91.53
2019-05-30T07:53:40.125Z,90.77
2019-05-30T07:54:40.118Z,90.86
2019-05-30T07:55:40.115Z,90.86
2019-05-30T07:56:40.101Z,91.05
2019-05-30T07:57:41.441Z,91.53
2019-05-30T07:58:40.087Z,91.34
2019-05-30T07:59:40.079Z,91.53
2019-05-30T08:00:40.069Z,91.25
2019-05-30T08:01:40.069Z,91.82
2019-05-30T08:02:40.053Z,91.63
2019-05-30T08:03:40.046Z,91.34
2019-05-30T08:04:40.039Z,91.53
2019-05-30T08:05:40.030Z,91.10
2019-05-30T08:06:40.022Z,90.72
2019-05-30T08:07:40.019Z,90.05
2019-05-30T08:08:40.032Z,90.14
2019-05-30T08:09:39.999Z,90.72
2019-05-30T08:10:39.992Z,89.71
2019-05-30T08:11:39.985Z,89.04
2019-05-30T08:12:39.988Z,87.70
2019-05-30T08:13:39.969Z,88.32
2019-05-30T08:14:39.962Z,89.23
2019-05-30T08:15:44.105Z,89.13
2019-05-30T08:16:39.947Z,89.23
2019-05-30T08:17:43.359Z,88.94
2019-05-30T08:18:39.934Z,90.00
2019-05-30T08:19:39.927Z,88.46
2019-05-30T08:20:39.923Z,88.27
2019-05-30T08:21:39.929Z,88.08
2019-05-30T08:22:39.911Z,87.70
2019-05-30T08:23:39.899Z,88.80
2019-05-30T08:24:39.891Z,89.37
2019-05-30T08:25:39.886Z,89.28
2019-05-30T08:26:39.884Z,88.99
2019-05-30T08:27:39.871Z,89.09
2019-05-30T08:28:42.549Z,88.75
2019-05-30T08:29:39.857Z,88.84
2019-05-30T08:30:39.951Z,88.94
2019-05-30T08:31:39.844Z,88.27
2019-05-30T08:32:39.837Z,87.88
2019-05-30T08:33:39.850Z,87.50
2019-05-30T08:34:39.823Z,87.98
2019-05-30T08:35:49.086Z,88.17
2019-05-30T08:36:39.809Z,88.27
2019-05-30T08:37:39.806Z,88.27
2019-05-30T08:38:39.800Z,88.94
2019-05-30T08:39:39.790Z,89.80
2019-05-30T08:40:39.834Z,89.51
2019-05-30T08:41:39.775Z,89.71
2019-05-30T08:42:40.362Z,89.90
2019-05-30T08:43:39.795Z,89.13
2019-05-30T08:44:40.167Z,89.47
2019-05-30T08:45:40.035Z,88.31
2019-05-30T08:46:40.037Z,88.12
2019-05-30T08:47:40.687Z,88.12
2019-05-30T08:48:40.368Z,87.55
2019-05-30T08:49:40.405Z,87.45
2019-05-30T08:50:44.062Z,86.78
2019-05-30T08:51:40.458Z,87.07
2019-05-30T08:52:40.923Z,87.64
2019-05-30T08:53:40.669Z,88.02
2019-05-30T08:54:40.584Z,87.45
2019-05-30T08:55:40.637Z,87.55
2019-05-30T08:56:40.653Z,87.07
2019-05-30T08:57:40.976Z,87.45
2019-05-30T08:58:40.838Z,87.55
2019-05-30T08:59:40.756Z,87.35
2019-05-30T09:00:39.654Z,87.11
2019-05-30T09:01:40.493Z,86.54
2019-05-30T09:02:40.755Z,86.72
2019-05-30T09:03:40.083Z,87.11
2019-05-30T09:04:39.843Z,87.30
2019-05-30T09:05:56.550Z,86.63
2019-05-30T09:06:39.958Z,86.72
2019-05-30T09:07:40.236Z,87.15
2019-05-30T09:08:40.051Z,86.29
2019-05-30T09:09:40.165Z,86.10
2019-05-30T09:10:40.856Z,85.24
2019-05-30T09:11:40.524Z,84.85
2019-05-30T09:12:40.874Z,85.10
2019-05-30T09:13:40.403Z,85.96
2019-05-30T09:14:41.063Z,87.07
2019-05-30T09:15:40.949Z,86.68
2019-05-30T09:16:39.563Z,87.74
2019-05-30T09:17:40.677Z,87.55
2019-05-30T09:18:40.280Z,87.35
2019-05-30T09:19:40.347Z,87.45
2019-05-30T09:20:40.261Z,88.12
2019-05-30T09:21:39.845Z,88.60
2019-05-30T09:22:39.823Z,88.79
2019-05-30T09:23:40.951Z,88.22
2019-05-30T09:24:40.439Z,88.12
2019-05-30T09:25:40.006Z,88.89
2019-05-30T09:26:44.222Z,88.60
2019-05-30T09:27:40.882Z,89.08
2019-05-30T09:28:40.662Z,88.70
2019-05-30T09:29:41.051Z,88.70
2019-05-30T09:30:40.826Z,89.08
2019-05-30T09:31:41.042Z,88.98
2019-05-30T09:32:39.957Z,89.08
2019-05-30T09:33:40.849Z,88.41
2019-05-30T09:34:40.394Z,88.93
2019-05-30T09:35:40.308Z,88.93
2019-05-30T09:36:39.963Z,88.74
2019-05-30T09:37:40.540Z,88.26
2019-05-30T09:38:40.556Z,87.88
2019-05-30T09:39:40.481Z,87.54
2019-05-30T09:40:40.849Z,86.77
2019-05-30T09:41:40.469Z,86.72
2019-05-30T09:42:40.771Z,87.25
2019-05-30T09:43:40.902Z,86.96
2019-05-30T09:44:40.497Z,86.58
2019-05-30T09:45:39.587Z,86.00
2019-05-30T09:46:40.870Z,86.52
2019-05-30T09:47:41.316Z,84.85
2019-05-30T09:48:40.189Z,86.00
2019-05-30T09:49:40.167Z,85.62
2019-05-30T09:50:42.016Z,85.91
2019-05-30T09:51:40.578Z,86.10
2019-05-30T09:52:39.348Z,86.38
2019-05-30T09:53:39.336Z,86.48
2019-05-30T09:54:39.329Z,87.15
2019-05-30T09:55:39.323Z,86.77
2019-05-30T09:56:39.317Z,86.54
2019-05-30T09:57:39.311Z,87.11
2019-05-30T09:58:39.305Z,87.30
2019-05-30T09:59:39.299Z,87.44
2019-05-30T10:00:39.294Z,87.15
2019-05-30T10:01:39.287Z,87.15
2019-05-30T10:02:39.285Z,87.05
2019-05-30T10:03:39.276Z,86.87
2019-05-30T10:04:39.269Z,86.48
2019-05-30T10:05:39.271Z,86.63
2019-05-30T10:06:39.258Z,86.87
2019-05-30T10:07:39.257Z,87.15
2019-05-30T10:08:39.246Z,86.62
2019-05-30T10:09:39.241Z,86.43
2019-05-30T10:10:39.240Z,85.28
2019-05-30T10:11:39.231Z,85.37
2019-05-30T10:12:39.225Z,85.37
2019-05-30T10:13:39.220Z,85.57
2019-05-30T10:14:39.216Z,85.95
2019-05-30T10:15:39.235Z,86.24
2019-05-30T10:16:39.208Z,85.66
2019-05-30T10:17:39.200Z,84.31
2019-05-30T10:18:39.194Z,84.89
2019-05-30T10:19:39.191Z,85.47
2019-05-30T10:20:39.185Z,86.43
2019-05-30T10:21:39.179Z,86.43
2019-05-30T10:22:39.175Z,83.97
2019-05-30T10:23:39.170Z,84.45
2019-05-30T10:24:42.834Z,83.78
2019-05-30T10:25:39.163Z,83.78
2019-05-30T10:26:39.156Z,83.84
2019-05-30T10:27:39.152Z,84.31
2019-05-30T10:28:39.150Z,84.80
2019-05-30T10:29:39.146Z,85.18
2019-05-30T10:30:39.135Z,85.85
2019-05-30T10:31:39.130Z,85.28
2019-05-30T10:32:39.129Z,85.33
2019-05-30T10:33:39.119Z,84.89
2019-05-30T10:34:39.114Z,84.70
2019-05-30T10:35:39.160Z,84.31
2019-05-30T10:36:44.365Z,84.70
2019-05-30T10:37:39.099Z,84.31
2019-05-30T10:38:39.094Z,83.69
2019-05-30T10:39:39.090Z,83.20
2019-05-30T10:40:39.086Z,83.69
2019-05-30T10:41:39.079Z,83.78
2019-05-30T10:42:39.075Z,83.20
2019-05-30T10:43:39.073Z,84.07
2019-05-30T10:44:39.066Z,84.51
2019-05-30T10:45:39.060Z,85.66
2019-05-30T10:46:39.058Z,84.80
2019-05-30T10:47:39.052Z,85.33
2019-05-30T10:48:39.096Z,86.38
2019-05-30T10:49:39.042Z,86.96
2019-05-30T10:50:39.035Z,86.38
2019-05-30T10:51:39.031Z,86.58
2019-05-30T10:52:39.022Z,86.29
2019-05-30T10:53:39.021Z,86.58
2019-05-30T10:54:39.013Z,86.96
2019-05-30T10:55:39.008Z,87.73
2019-05-30T10:56:38.999Z,88.11
2019-05-30T10:57:38.993Z,88.31
2019-05-30T10:58:38.990Z,88.31
2019-05-30T10:59:38.982Z,87.92
2019-05-30T11:00:38.975Z,86.77
2019-05-30T11:01:38.987Z,87.05
2019-05-30T11:02:39.021Z,86.48
2019-05-30T11:03:38.959Z,86.91
2019-05-30T11:04:38.952Z,87.01
2019-05-30T11:05:38.946Z,86.81
2019-05-30T11:06:38.947Z,86.05
2019-05-30T11:07:52.817Z,86.05
2019-05-30T11:08:38.929Z,87.01
2019-05-30T11:09:38.924Z,86.05
2019-05-30T11:10:38.928Z,86.05
2019-05-30T11:11:38.916Z,86.05
2019-05-30T11:12:38.906Z,86.38
2019-05-30T11:13:38.907Z,86.62
2019-05-30T11:14:38.894Z,86.77
2019-05-30T11:15:38.890Z,86.87
2019-05-30T11:16:38.883Z,86.96
2019-05-30T11:17:38.876Z,87.05
2019-05-30T11:18:38.871Z,86.91
2019-05-30T11:19:38.886Z,86.43
2019-05-30T11:20:38.862Z,85.75
2019-05-30T11:21:38.855Z,85.75
2019-05-30T11:22:38.850Z,85.75
2019-05-30T11:23:38.842Z,85.47
2019-05-30T11:24:38.841Z,85.57
2019-05-30T11:25:38.834Z,86.43
2019-05-30T11:26:38.824Z,86.05
2019-05-30T11:27:38.822Z,86.05
2019-05-30T11:28:38.812Z,87.19
2019-05-30T11:29:38.807Z,85.75
2019-05-30T11:30:38.801Z,86.24
2019-05-30T11:31:38.799Z,85.08
2019-05-30T11:32:38.792Z,85.32
2019-05-30T11:33:38.784Z,85.51
2019-05-30T11:34:38.779Z,83.97
2019-05-30T11:35:38.778Z,84.26
2019-05-30T11:36:38.768Z,84.36
2019-05-30T11:37:38.763Z,83.78
2019-05-30T11:38:38.758Z,84.26
2019-05-30T11:39:38.753Z,83.30
2019-05-30T11:40:38.776Z,83.34
2019-05-30T11:41:38.743Z,83.40
2019-05-30T11:42:38.739Z,83.53
2019-05-30T11:43:38.733Z,83.69
2019-05-30T11:44:38.728Z,83.73
2019-05-30T11:45:38.722Z,83.25
2019-05-30T11:46:38.718Z,83.25
2019-05-30T11:47:38.723Z,83.97
2019-05-30T11:48:38.707Z,84.17
2019-05-30T11:49:38.715Z,84.64
2019-05-30T11:50:38.699Z,83.97
2019-05-30T11:51:38.693Z,84.80
2019-05-30T11:52:38.686Z,85.28
2019-05-30T11:53:38.681Z,86.05
2019-05-30T11:54:38.683Z,85.80
2019-05-30T11:55:38.670Z,85.37
2019-05-30T11:56:38.665Z,84.80
2019-05-30T11:57:38.659Z,85.28
2019-05-30T11:58:38.653Z,85.18
2019-05-30T11:59:38.648Z,86.05
2019-05-30T12:00:38.642Z,86.52
2019-05-30T12:01:38.637Z,86.05
2019-05-30T12:02:38.632Z,85.75
2019-05-30T12:03:38.627Z,85.80
2019-05-30T12:04:38.619Z,85.28
2019-05-30T12:05:38.614Z,85.66
2019-05-30T12:06:38.610Z,85.22
2019-05-30T12:07:38.603Z,84.74
2019-05-30T12:08:38.596Z,84.74
2019-05-30T12:09:38.592Z,84.55
2019-05-30T12:10:38.586Z,83.63
2019-05-30T12:11:38.582Z,83.44
2019-05-30T12:12:38.579Z,83.34
2019-05-30T12:13:38.575Z,83.44
2019-05-30T12:14:38.566Z,83.44
2019-05-30T12:15:38.563Z,84.55
2019-05-30T12:16:38.556Z,83.59
2019-05-30T12:17:38.550Z,84.07
2019-05-30T12:18:38.545Z,84.64
2019-05-30T12:19:38.545Z,84.69
2019-05-30T12:20:38.534Z,84.50
2019-05-30T12:21:38.530Z,82.38
2019-05-30T12:22:38.524Z,82.76
2019-05-30T12:23:38.520Z,83.15
2019-05-30T12:24:38.517Z,81.90
2019-05-30T12:25:38.509Z,81.94
2019-05-30T12:26:38.507Z,81.71
2019-05-30T12:27:38.502Z,82.57
2019-05-30T12:28:38.496Z,81.71
2019-05-30T12:29:38.490Z,81.90
2019-05-30T12:30:54.377Z,81.61
2019-05-30T12:31:38.483Z,81.90
2019-05-30T12:32:38.479Z,81.94
2019-05-30T12:33:38.473Z,81.27
2019-05-30T12:34:38.467Z,81.84
2019-05-30T12:35:38.464Z,82.04
2019-05-30T12:36:38.459Z,81.27
2019-05-30T12:37:53.600Z,81.07
2019-05-30T12:38:38.451Z,81.27
2019-05-30T12:39:38.447Z,81.32
2019-05-30T12:40:38.445Z,82.19
2019-05-30T12:41:38.438Z,81.99
2019-05-30T12:42:38.441Z,82.19
2019-05-30T12:43:38.430Z,83.06
2019-05-30T12:44:38.426Z,82.76
2019-05-30T12:45:38.420Z,82.67
2019-05-30T12:46:38.417Z,82.19
2019-05-30T12:47:38.411Z,82.57
2019-05-30T12:48:38.406Z,82.48
2019-05-30T12:49:38.403Z,83.25
2019-05-30T12:50:38.397Z,83.34
2019-05-30T12:51:38.395Z,83.15
2019-05-30T12:52:38.390Z,83.06
2019-05-30T12:53:38.389Z,83.01